Relevés horaires Beauvechain (Belgique)


Relevés horaires à Beauvechain - Samedi 25 Mars 2017
Heure UTC1 Température [°C] Vent [km/h] Hum. [%] Pres.4 [hPa] Visi. [Km] Nébu. [octa] Préc.5 [mm] Cond.
2m. Res. Ros. Dir.2 Vit. Moy. Raf.3
23:00 7.0 7.0 -1.6 NE 3.7 -- 9.3 54 1024(-0.4/3h) 20 -- -- --
22:00 8.4 7.3 -2.4 ENE 7.4 -- 13.0 46 1024.2(0.0/3h) 20 -- -- --
21:00 9.1 7.7 -3.2 NE 9.3 11.1 14.8 42 1024.4(0.6/3h) 20 -- -- --
20:00 9.3 7.9 -2.6 NE 9.3 -- 11.1 43 1024.4(0.8/3h) 20 -- -- --
19:00 10.6 9.5 -1.5 NE 9.3 -- 14.8 43 1024(0.2/3h) 20 -- -- --
18:00 12.0 11.1 -1.8 NE 9.3 -- 25.9 38 1023.6(-0.9/3h) 20 -- -- --
17:00 13.4 12.3 -2.0 NE 13.0 -- 22.2 34 1023.2(-1.8/3h) 20 -- -- --
16:00 14.3 13.4 -2.0 NE 13.0 -- 25.9 32 1023.6(-2.3/3h) 20 -- -- --
15:00 14.3 13.1 -3.2 ENE 16.7 18.5 24.1 30 1024.4(-2.2/3h) 20 -- -- --
14:00 14.1 12.8 -1.5 ENE 16.7 -- 24.1 34 1025.2(-2.3/3h) 20 -- -- --
13:00 13.7 12.5 -- ENE 14.8 -- 24.1 -- 1026(-2.0/3h) 20 -- -- --
12:00 13.4 11.9 0.1 NE 16.7 -- 24.1 40 1026.7(-1.9/3h) 20 -- -- --
11:00 12.3 10.8 2.6 ENE 14.8 -- 20.4 51 1027.7(-1.5/3h) 20 -- -- --
10:00 10.5 8.8 3.3 NE 13.0 -- 18.5 61 1028.2(-1.0/3h) 19 -- -- --
09:00 8.2 6.3 3.1 NE 11.1 11.1 16.7 70 1028.9(-0.5/3h) 13 -- -- --
08:00 6.6 4.7 2.3 ENE 9.3 -- 13.0 74 1029.5(0.0/3h) 14 -- -- --
07:00 4.5 2.7 1.7 NE 7.4 -- 11.1 82 1029.7(-0.1/3h) 12 -- -- --
06:00 3.5 1.5 1.3 NE 7.4 -- 11.1 85 1029.7(-0.1/3h) 10 -- -- --
05:00 3.6 2.3 1.4 NE 5.6 -- 7.4 85 1029.5(-0.4/3h) 11 -- -- --
04:00 4.1 2.8 1.7 NE 5.6 -- 9.3 84 1029.7(-0.4/3h) 12 -- -- --
03:00 5.0 3.3 1.9 NE 7.4 9.3 11.1 80 1029.7(-0.4/3h) 14 -- -- --
02:00 5.3 3.6 2.0 NE 7.4 -- 11.1 79 1030(-0.4/3h) 17 -- -- --
01:00 5.6 4 2.0 NE 7.4 -- 11.1 78 1030.2(-0.3/3h) 19 -- -- --
00:00 6.8 5 2.2 ENE 9.3 -- 13.0 72 1030.2(0.1/3h) 20 -- -- --

1 Coordinated Universal Time. Actuellement il est 22:00 locale et 20:00 UTC.

2 Le vent souffle depuis la direction indiquée vers la direction oposée.

3 Les rafales max. sont disponible 40 min après l'heure du relevé.

4 Pour les stations d'altitude (plus de 600m) le géopotentiel du niveau le plus proche de la pression obligatoire est indiqué.

5 Les stations disposant d'un diffuseur peuvent indiquer "trace". Cela signifie que des précipitations ont touchés le sol mais que la quantité est inférieure à 0.1 mm.

Récapitulatif de la journée
Température [°C] Vent [km/h] Ensoleillement4 [h] Precipitations totale5 [mm] Pression [Hpa]
Min1 Max.2 Moy.3 Max. Min Max.
3.4 14.6 12.5 25.9 0 h 0 min 0 1023.2 1030.2

1 Température minimale relevée entre 18:00 UTC la veille et 18:00 UTC le jour donné.

2 Température maximale relevée entre 06:00 UTC le jour donné et 06:00 UTC le lendemain.

3 Vent moyen de la journée basé sur les relevés horaires.

4 Ensoleillement en heures relevé entre 06:00 UTC la veille et 06:00 UTC le jour donné.

5 Précipitations totales tombées entre 06:00 UTC la jour donné et 06:00 UTC le lendemain.

Graphiques horaires